Hub


Voltar

 INFORMAÇÕES METEOROLÓGICAS

METAR FOR VABB


ADDS - METARS form results

(2054 UTC 16 February 2019)
Data provider http://aviationweather.gov/metar/data/
 
METAR text: VABB 162030Z 00000KT 3000 FU NSC 23/11 Q1013 NOSIG
Conditions at: VABB (BOMBAY/SANTACRUZ, IN) observed 2030 UTC 16 February 2019
Temperature: 23.0°C (73°F)
Dewpoint: 11.0°C (52°F) [RH = 47%]
Pressure (altimeter): 29.91 inches Hg (1013.0 mb)
Winds: calm
Visibility: 1.86 miles (2.99 km)
Ceiling: at least 12,000 feet AGL
Clouds: sky clear below 12,000 feet AGL
Weather: FU  (smoke)

METAR text: VABB 162000Z 22003KT 3000 FU NSC 24/11 Q1014 NOSIG
Conditions at: VABB (BOMBAY/SANTACRUZ, IN) observed 2000 UTC 16 February 2019
Temperature: 24.0°C (75°F)
Dewpoint: 11.0°C (52°F) [RH = 44%]
Pressure (altimeter): 29.94 inches Hg (1014.0 mb)
Winds: from the SW (220 degrees) at 3 MPH (3 knots; 1.5 m/s)
Visibility: 1.86 miles (2.99 km)
Ceiling: at least 12,000 feet AGL
Clouds: sky clear below 12,000 feet AGL
Weather: FU  (smoke)

Forecast for: VABB (BOMBAY/SANTACRUZ, IN)
Text: TAF VABB 162000Z 1621/1706 05005KT 3000 HZ NSC
Forecast period: 2100 UTC 16 February 2019 to 0600 UTC 17 February 2019
Forecast type: FROM: standard forecast or significant change
Winds: from the NE (50 degrees) at 6 MPH (5 knots; 2.6 m/s)
Visibility: 1.86 miles (2.99 km)
Ceiling: unknown
Clouds: missing
Weather: HZ  (haze)


 MAPA DO AEROPORTO


 INFORMAÇÕES DA PISTA

Pista 09 Tamanho da pista 11302 ft Largura da pista 148 ft
Elevação da pista 15 ft Ranhura da pista 465 ft Proa da pista 89
Pista 27 Tamanho da pista 11302 ft Largura da pista 148 ft
Elevação da pista 22 ft Ranhura da pista 1581 ft Proa da pista 269
Pista 14 Tamanho da pista 9596 ft Largura da pista 150 ft
Elevação da pista 37 ft Ranhura da pista 1238 ft Proa da pista 134
Pista 32 Tamanho da pista 9596 ft Largura da pista 150 ft
Elevação da pista 26 ft Ranhura da pista 853 ft Proa da pista 314

 FREQUÊNCIAS DO AEROPORTO

Tipo ACC Nome MUMBAI Frequência 120.5 MHZ
Tipo APP Nome MUMBAI APP Frequência 127.9 MHZ
Tipo ATIS Nome MUMBAI ATI Frequência 126.4 MHZ
Tipo CLD Nome MUMBAI CLR Frequência 121.85 MHZ
Tipo GND Nome MUMBAI GND Frequência 121.9 MHZ
Tipo RDO Nome MUMBAI RDO Frequência 1008.4 MHZ
Tipo RDR Nome RDR Frequência 119.3 MHZ
Tipo TWR Nome MUMBAI TWR Frequência 118.1 MHZ

 AUXÍLIOS DE NAVEGAÇÃO PRÓXIMOS AO AEROPORTO

Tipo VOR-DME Nome Mumbai Frequência 116600 KHZ